Temp: 7.1°C   Baro: 1014.4mb
  Wind: 4.0mph   Dir: SW (234°)
  Rain: 0.0mm (0.0mm/hr)
  Solar: 0W/m2  Hum: 88%
 
Cotswold Observatory Historical Data
 
Daily Summary for December 17, 2018 Units:  Metric    English   Both
Next Day »
Daily Weekly Monthly Yearly Custom
  Current: High: Low: Average:
Temperature: 7.1 °C 7.7 °C 5.1 °C 6.7 °C
Dew Point: 5.2 °C 6.5 °C 3.8 °C 5.3 °C
Humidity: 88% 96% 87% 91%
Wind Speed: 3.2km/h 11.1km/h 0.0km/h 3.7km/h
Wind Gust: 12.9km/h 19.3km/h - -
Wind directionSW - - WSW
Pressure: 1014.4 hPa 1014.4 hPa 1009.0 hPa -
Precipitation: 0.0 mm      
Historical Graphs
 
 
Tabular Data for December 17, 2018
Time Temperature Dew Point Pressure Wind direction Wind Speed Wind Gust Humidity Rainfall Rate (Hourly) solar
00:04 7.4 °C 5.9 °C 1009.0 hPa SW 3.2 km/h 6.4 km/h 90% 0.0 mm 0.00 W/m2
00:08 7.6 °C 6.2 °C 1009.0 hPa SW 1.4 km/h 4.8 km/h 91% 0.0 mm 0.00 W/m2
00:14 7.4 °C 5.9 °C 1009.0 hPa SW 1.4 km/h 3.2 km/h 90% 0.0 mm 0.00 W/m2
00:19 7.3 °C 5.9 °C 1009.0 hPa SW 3.2 km/h 4.8 km/h 91% 0.0 mm 0.00 W/m2
00:24 7.7 °C 6.5 °C 1009.0 hPa SW 1.4 km/h 3.2 km/h 92% 0.0 mm 0.00 W/m2
00:29 7.2 °C 5.5 °C 1009.4 hPa WSW 1.4 km/h 6.4 km/h 89% 0.0 mm 0.00 W/m2
00:34 7.3 °C 5.9 °C 1009.0 hPa WSW 1.4 km/h 4.8 km/h 91% 0.0 mm 0.00 W/m2
00:39 7.4 °C 6.0 °C 1009.4 hPa Calm   4.8 km/h 91% 0.0 mm 0.00 W/m2
00:42 7.4 °C 6.0 °C 1009.4 hPa WSW 1.4 km/h 4.8 km/h 91% 0.0 mm 0.00 W/m2
00:49 7.4 °C 6.0 °C 1009.4 hPa WSW 3.2 km/h 4.8 km/h 91% 0.0 mm 0.00 W/m2
00:54 7.0 °C 5.3 °C 1009.4 hPa Calm     89% 0.0 mm 0.00 W/m2
00:59 6.3 °C 4.3 °C 1013.7 hPa WSW 5.6 km/h   87% 0.0 mm 0.00 W/m2
01:04 5.5 °C 3.8 °C 1009.7 hPa Calm   1.6 km/h 89% 0.0 mm 0.00 W/m2
01:09 5.9 °C 4.9 °C 1010.0 hPa Calm   1.6 km/h 93% 0.0 mm 0.00 W/m2
01:14 6.6 °C 5.7 °C 1010.0 hPa Calm     94% 0.0 mm 0.00 W/m2
01:19 6.7 °C 5.6 °C 1010.0 hPa Calm   3.2 km/h 93% 0.0 mm 0.00 W/m2
01:24 6.4 °C 5.1 °C 1013.7 hPa WSW 5.6 km/h   91% 0.0 mm 0.00 W/m2
01:28 6.3 °C 5.1 °C 1010.0 hPa WSW 4.7 km/h 12.9 km/h 92% 0.0 mm 0.00 W/m2
01:33 6.4 °C 5.2 °C 1010.0 hPa West 11.1 km/h 12.9 km/h 92% 0.0 mm 0.00 W/m2
01:39 6.4 °C 5.0 °C 1010.4 hPa SW 7.9 km/h 11.3 km/h 91% 0.0 mm 0.00 W/m2
01:44 6.6 °C 5.4 °C 1010.7 hPa WSW 9.7 km/h 17.7 km/h 92% 0.0 mm 0.00 W/m2
01:48 6.6 °C 5.2 °C 1010.4 hPa SW 9.7 km/h 14.5 km/h 91% 0.0 mm 0.00 W/m2
01:53 6.7 °C 5.3 °C 1010.7 hPa WSW 9.7 km/h 11.3 km/h 91% 0.0 mm 0.00 W/m2
01:59 6.7 °C 5.3 °C 1010.7 hPa SW 11.1 km/h 19.3 km/h 91% 0.0 mm 0.00 W/m2
02:04 6.7 °C 5.3 °C 1010.7 hPa SW 7.9 km/h 14.5 km/h 91% 0.0 mm 0.00 W/m2
02:09 6.8 °C 5.4 °C 1010.7 hPa SSW 3.2 km/h 14.5 km/h 91% 0.0 mm 0.00 W/m2
02:13 6.9 °C 5.7 °C 1011.1 hPa SW 3.2 km/h 9.7 km/h 92% 0.0 mm 0.00 W/m2
02:19 7.1 °C 5.7 °C 1011.1 hPa WSW 11.1 km/h 12.9 km/h 91% 0.0 mm 0.00 W/m2
02:24 6.9 °C 5.4 °C 1011.1 hPa WSW 4.7 km/h 9.7 km/h 90% 0.0 mm 0.00 W/m2
02:29 6.8 °C 5.3 °C 1011.1 hPa WSW 4.7 km/h 6.4 km/h 90% 0.0 mm 0.00 W/m2
02:34 6.6 °C 4.9 °C 1011.1 hPa Calm   3.2 km/h 89% 0.0 mm 0.00 W/m2
02:38 6.2 °C 4.5 °C 1011.4 hPa North 3.2 km/h 4.8 km/h 89% 0.0 mm 0.00 W/m2
02:44 5.8 °C 4.3 °C 1011.4 hPa Calm     90% 0.0 mm 0.00 W/m2
02:49 5.7 °C 4.2 °C 1013.7 hPa North 5.6 km/h   90% 0.0 mm 0.00 W/m2
02:54 5.3 °C 3.8 °C 1013.7 hPa North 5.6 km/h   90% 0.0 mm 0.00 W/m2
02:57 5.2 °C 3.9 °C 1011.7 hPa Calm     91% 0.0 mm 0.00 W/m2
03:04 5.1 °C 3.9 °C 1011.7 hPa Calm     92% 0.0 mm 0.00 W/m2
03:09 5.1 °C 3.9 °C 1011.7 hPa Calm     92% 0.0 mm 0.00 W/m2
03:14 5.4 °C 4.5 °C 1011.7 hPa WSW 1.4 km/h 3.2 km/h 94% 0.0 mm 0.00 W/m2
03:19 5.3 °C 4.3 °C 1011.7 hPa Calm   1.6 km/h 93% 0.0 mm 0.00 W/m2
03:24 5.2 °C 4.0 °C 1012.1 hPa WSW 1.4 km/h 3.2 km/h 92% 0.0 mm 0.00 W/m2
03:29 5.1 °C 3.9 °C 1012.1 hPa WSW 1.4 km/h 3.2 km/h 92% 0.0 mm 0.00 W/m2
03:34 5.6 °C 4.9 °C 1012.4 hPa Calm     95% 0.0 mm 0.00 W/m2
03:39 5.8 °C 5.1 °C 1012.4 hPa Calm     95% 0.0 mm 0.00 W/m2
03:44 6.6 °C 6.0 °C 1012.4 hPa Calm   3.2 km/h 96% 0.0 mm 0.00 W/m2
03:49 6.5 °C 5.6 °C 1012.8 hPa WSW 3.2 km/h 3.2 km/h 94% 0.0 mm 0.00 W/m2
03:54 6.6 °C 5.7 °C 1012.8 hPa SW 3.2 km/h 6.4 km/h 94% 0.0 mm 0.00 W/m2
03:59 6.9 °C 6.2 °C 1012.8 hPa South 1.4 km/h 4.8 km/h 95% 0.0 mm 0.00 W/m2
04:04 7.1 °C 6.0 °C 1012.8 hPa Calm   9.7 km/h 93% 0.0 mm 0.00 W/m2
04:09 6.9 °C 5.7 °C 1012.8 hPa SW 6.4 km/h 14.5 km/h 92% 0.0 mm 0.00 W/m2
04:14 7.1 °C 6.0 °C 1012.8 hPa SSW 4.7 km/h 8.0 km/h 93% 0.0 mm 0.00 W/m2
04:19 7.2 °C 6.0 °C 1012.8 hPa WSW 6.4 km/h 11.3 km/h 92% 0.0 mm 0.00 W/m2
04:24 7.2 °C 6.0 °C 1012.8 hPa WSW 3.2 km/h 6.4 km/h 92% 0.0 mm 0.00 W/m2
04:29 7.4 °C 6.2 °C 1013.1 hPa SW 3.2 km/h 4.8 km/h 92% 0.0 mm 0.00 W/m2
04:34 7.5 °C 6.3 °C 1013.1 hPa SW 3.2 km/h 8.0 km/h 92% 0.0 mm 0.00 W/m2
04:39 7.7 °C 6.5 °C 1013.1 hPa SW 11.1 km/h 12.9 km/h 92% 0.0 mm 0.00 W/m2
04:44 7.6 °C 6.2 °C 1013.1 hPa SW 3.2 km/h 6.4 km/h 91% 0.0 mm 0.00 W/m2
04:49 7.6 °C 6.2 °C 1013.4 hPa SSW 4.7 km/h 6.4 km/h 91% 0.0 mm 0.00 W/m2
04:54 7.6 °C 6.1 °C 1013.1 hPa WSW 1.4 km/h 8.0 km/h 90% 0.0 mm 0.00 W/m2
04:59 7.5 °C 6.0 °C 1013.1 hPa SW 3.2 km/h 6.4 km/h 90% 0.0 mm 0.00 W/m2
05:04 7.5 °C 6.0 °C 1013.1 hPa SW 1.4 km/h 3.2 km/h 90% 0.0 mm 0.00 W/m2
05:09 7.2 °C 5.5 °C 1013.1 hPa SW 1.4 km/h 3.2 km/h 89% 0.0 mm 0.00 W/m2
05:14 6.9 °C 5.1 °C 1013.4 hPa Calm   3.2 km/h 88% 0.0 mm 0.00 W/m2
05:19 6.9 °C 5.2 °C 1013.1 hPa SSW 6.4 km/h 6.4 km/h 89% 0.0 mm 0.00 W/m2
05:24 6.8 °C 5.3 °C 1013.4 hPa WSW 7.9 km/h 9.7 km/h 90% 0.0 mm 0.00 W/m2
05:29 6.8 °C 5.3 °C 1013.4 hPa SW 9.7 km/h 11.3 km/h 90% 0.0 mm 0.00 W/m2
05:34 6.9 °C 5.4 °C 1013.4 hPa WSW 1.4 km/h 12.9 km/h 90% 0.0 mm 0.00 W/m2
05:39 7.0 °C 5.5 °C 1013.4 hPa SW 7.9 km/h 11.3 km/h 90% 0.0 mm 0.00 W/m2
05:44 7.0 °C 5.3 °C 1013.4 hPa WSW 7.9 km/h 9.7 km/h 89% 0.0 mm 0.00 W/m2
05:49 7.0 °C 5.3 °C 1013.8 hPa South 4.7 km/h 11.3 km/h 89% 0.0 mm 0.00 W/m2
05:54 6.9 °C 5.2 °C 1013.8 hPa SW 3.2 km/h 12.9 km/h 89% 0.0 mm 0.00 W/m2
05:59 6.9 °C 5.2 °C 1013.8 hPa SW 3.2 km/h 16.1 km/h 89% 0.0 mm 0.00 W/m2
06:04 6.9 °C 5.2 °C 1014.1 hPa WSW 3.2 km/h 11.3 km/h 89% 0.0 mm 0.00 W/m2
06:09 6.9 °C 5.2 °C 1014.1 hPa WSW 4.7 km/h 4.8 km/h 89% 0.0 mm 0.00 W/m2
06:14 6.9 °C 5.2 °C 1014.1 hPa WSW 7.9 km/h 9.7 km/h 89% 0.0 mm 0.00 W/m2
06:19 7.1 °C 5.4 °C 1014.1 hPa WSW 6.4 km/h 8.0 km/h 89% 0.0 mm 0.00 W/m2
06:24 7.1 °C 5.2 °C 1014.4 hPa SW 3.2 km/h 12.9 km/h 88% 0.0 mm 0.00 W/m2